createdAt,value
2018-05-29T00:00:33.505Z,72.60
2018-05-29T00:03:00.943Z,72.60
2018-05-29T00:05:28.375Z,72.90
2018-05-29T00:07:56.689Z,73.20
2018-05-29T00:10:24.133Z,73.00
2018-05-29T00:12:51.581Z,72.90
2018-05-29T00:15:19.040Z,72.70
2018-05-29T00:17:46.477Z,72.60
2018-05-29T00:20:13.986Z,72.60
2018-05-29T00:22:41.429Z,72.70
2018-05-29T00:25:09.782Z,72.70
2018-05-29T00:27:38.726Z,73.00
2018-05-29T00:30:06.858Z,73.10
2018-05-29T00:32:34.298Z,73.20
2018-05-29T00:35:01.746Z,73.40
2018-05-29T00:37:29.949Z,74.00
2018-05-29T00:39:57.629Z,74.00
2018-05-29T00:42:25.106Z,74.00
2018-05-29T00:44:52.553Z,74.30
2018-05-29T00:47:20.080Z,74.50
2018-05-29T00:49:47.522Z,74.40
2018-05-29T00:52:15.721Z,74.40
2018-05-29T00:54:44.701Z,74.40
2018-05-29T00:57:12.146Z,74.20
2018-05-29T00:59:40.354Z,74.20
2018-05-29T01:02:08.591Z,74.10
2018-05-29T01:04:36.811Z,74.30
2018-05-29T01:07:04.334Z,74.20
2018-05-29T01:09:31.786Z,74.30
2018-05-29T01:11:59.990Z,73.90
2018-05-29T01:14:28.338Z,73.90
2018-05-29T01:16:56.545Z,75.00
2018-05-29T01:19:25.421Z,75.00
2018-05-29T01:21:54.562Z,74.70
2018-05-29T01:24:22.014Z,74.80
2018-05-29T01:26:49.454Z,74.50
2018-05-29T01:29:16.899Z,75.20
2018-05-29T01:31:44.338Z,74.80
2018-05-29T01:34:11.798Z,74.90
2018-05-29T01:36:40.610Z,75.60
2018-05-29T01:39:08.046Z,75.10
2018-05-29T01:41:36.253Z,75.00
2018-05-29T01:44:04.055Z,75.20
2018-05-29T01:46:31.502Z,75.50
2018-05-29T01:48:58.952Z,75.40
2018-05-29T01:51:26.405Z,74.30
2018-05-29T01:53:53.854Z,75.00
2018-05-29T01:56:21.294Z,74.60
2018-05-29T01:58:48.765Z,74.90
2018-05-29T02:01:16.201Z,74.70
2018-05-29T02:03:43.654Z,74.40
2018-05-29T02:06:11.936Z,74.30
2018-05-29T02:08:40.166Z,74.40
2018-05-29T02:11:11.509Z,74.60
2018-05-29T02:13:38.953Z,74.60
2018-05-29T02:16:06.398Z,75.20
2018-05-29T02:18:33.842Z,74.90
2018-05-29T02:21:01.304Z,75.00
2018-05-29T02:23:28.747Z,74.80
2018-05-29T02:25:57.821Z,75.20
2018-05-29T02:28:26.050Z,74.50
2018-05-29T02:30:53.501Z,74.50
2018-05-29T02:33:20.938Z,75.20
2018-05-29T02:35:48.386Z,74.60
2018-05-29T02:38:15.959Z,74.40
2018-05-29T02:40:43.395Z,74.70
2018-05-29T02:43:10.843Z,75.10
2018-05-29T02:45:39.050Z,75.00
2018-05-29T02:48:06.507Z,75.00
2018-05-29T02:50:33.942Z,75.30
2018-05-29T02:53:01.398Z,74.90
2018-05-29T02:55:29.843Z,75.70
2018-05-29T02:57:57.278Z,76.40
2018-05-29T03:00:24.755Z,76.20
2018-05-29T03:02:52.186Z,76.10
2018-05-29T03:05:19.629Z,76.60
2018-05-29T03:07:47.813Z,76.90
2018-05-29T03:10:15.277Z,76.70
2018-05-29T03:12:43.610Z,76.20
2018-05-29T03:15:12.719Z,76.30
2018-05-29T03:17:40.157Z,76.30
2018-05-29T03:20:09.013Z,76.10
2018-05-29T03:22:37.006Z,76.10
2018-05-29T03:25:04.965Z,76.40
2018-05-29T03:27:32.413Z,76.80
2018-05-29T03:29:59.858Z,76.80
2018-05-29T03:32:29.219Z,76.90
2018-05-29T03:34:56.662Z,77.70
2018-05-29T03:37:24.879Z,77.70
2018-05-29T03:39:52.318Z,77.60
2018-05-29T03:42:19.765Z,77.00
2018-05-29T03:44:48.389Z,76.80
2018-05-29T03:47:15.858Z,76.80
2018-05-29T03:49:43.300Z,77.20
2018-05-29T03:52:10.745Z,77.20
2018-05-29T03:54:38.420Z,77.20
2018-05-29T03:57:07.111Z,77.80
2018-05-29T03:59:34.661Z,77.40
2018-05-29T04:02:02.099Z,77.00
2018-05-29T04:04:29.540Z,76.90
2018-05-29T04:06:57.757Z,76.30
2018-05-29T04:09:25.254Z,76.20
2018-05-29T04:11:52.655Z,76.20
2018-05-29T04:14:20.090Z,76.30
2018-05-29T04:16:48.301Z,76.60
2018-05-29T04:19:15.738Z,76.60
2018-05-29T04:21:43.181Z,76.70
2018-05-29T04:24:12.210Z,76.50
2018-05-29T04:26:39.666Z,76.40
2018-05-29T04:29:07.093Z,76.30
2018-05-29T04:31:34.542Z,76.60
2018-05-29T04:34:02.854Z,76.50
2018-05-29T04:36:30.298Z,76.40
2018-05-29T04:38:57.745Z,77.00
2018-05-29T04:41:30.423Z,76.70
2018-05-29T04:43:58.623Z,76.70
2018-05-29T04:46:26.066Z,76.60
2018-05-29T04:48:53.518Z,76.80
2018-05-29T04:51:21.727Z,77.00
2018-05-29T04:53:49.194Z,77.00
2018-05-29T04:56:16.650Z,77.20
2018-05-29T04:58:44.089Z,77.40
2018-05-29T05:01:11.537Z,77.10
2018-05-29T05:03:38.978Z,77.30
2018-05-29T05:06:07.140Z,77.20
2018-05-29T05:08:35.365Z,77.10
2018-05-29T05:11:02.834Z,77.10
2018-05-29T05:13:30.298Z,76.70
2018-05-29T05:15:57.767Z,76.30
2018-05-29T05:18:25.210Z,74.30
2018-05-29T05:20:52.655Z,74.80
2018-05-29T05:23:20.107Z,75.10
2018-05-29T05:25:47.554Z,75.50
2018-05-29T05:28:15.364Z,75.80
2018-05-29T05:30:42.797Z,76.70
2018-05-29T05:33:10.247Z,76.50
2018-05-29T05:35:37.702Z,76.80
2018-05-29T05:38:05.151Z,76.60
2018-05-29T05:40:32.595Z,76.50
2018-05-29T05:43:00.048Z,76.30
2018-05-29T05:45:27.498Z,76.10
2018-05-29T05:47:55.703Z,75.10
2018-05-29T05:50:23.153Z,75.10
2018-05-29T05:52:50.638Z,73.60
2018-05-29T05:55:18.037Z,73.60
2018-05-29T05:57:46.315Z,73.00
2018-05-29T06:00:15.345Z,72.70
2018-05-29T06:02:42.806Z,72.70
2018-05-29T06:05:10.303Z,73.10
2018-05-29T06:07:37.699Z,73.80
2018-05-29T06:10:05.134Z,74.20
2018-05-29T06:12:33.369Z,74.60
2018-05-29T06:15:01.654Z,74.70
2018-05-29T06:17:29.146Z,74.70
2018-05-29T06:19:56.598Z,74.60
2018-05-29T06:22:26.146Z,74.70
2018-05-29T06:24:54.430Z,74.70
2018-05-29T06:27:23.049Z,73.80
2018-05-29T06:29:50.786Z,74.90
2018-05-29T06:32:18.250Z,74.10
2018-05-29T06:34:45.693Z,75.20
2018-05-29T06:37:13.820Z,73.80
2018-05-29T06:39:42.942Z,73.50
2018-05-29T06:42:10.405Z,73.10
2018-05-29T06:44:37.996Z,74.70
2018-05-29T06:47:05.850Z,75.20
2018-05-29T06:49:33.327Z,73.90
2018-05-29T06:52:00.770Z,74.00
2018-05-29T06:54:28.224Z,73.80
2018-05-29T06:56:55.984Z,71.20
2018-05-29T06:59:24.319Z,72.90
2018-05-29T07:01:53.067Z,73.70
2018-05-29T07:04:20.503Z,71.60
2018-05-29T07:06:48.024Z,70.70
2018-05-29T07:09:30.106Z,69.50
2018-05-29T07:11:57.553Z,69.40
2018-05-29T07:14:25.016Z,69.40
2018-05-29T07:16:53.234Z,68.30
2018-05-29T07:19:21.964Z,67.00
2018-05-29T07:21:49.461Z,67.10
2018-05-29T07:24:17.681Z,68.70
2018-05-29T07:26:45.156Z,68.70
2018-05-29T07:29:13.271Z,67.40
2018-05-29T07:31:41.506Z,66.30
2018-05-29T07:34:08.952Z,66.30
2018-05-29T07:36:36.427Z,66.30
2018-05-29T07:39:04.018Z,65.70
2018-05-29T07:41:32.225Z,64.60
2018-05-29T07:43:59.674Z,64.60
2018-05-29T07:46:27.114Z,65.10
2018-05-29T07:48:55.723Z,63.60
2018-05-29T07:51:23.173Z,63.50
2018-05-29T07:53:50.714Z,64.00
2018-05-29T07:56:19.865Z,63.00
2018-05-29T07:58:47.365Z,63.00
2018-05-29T08:01:14.806Z,61.70
2018-05-29T08:03:43.123Z,62.20
2018-05-29T08:06:11.342Z,61.20
2018-05-29T08:08:38.788Z,60.80
2018-05-29T08:11:07.138Z,62.30
2018-05-29T08:13:35.876Z,62.70
2018-05-29T08:16:03.707Z,61.30
2018-05-29T08:18:31.214Z,62.00
2018-05-29T08:20:58.632Z,61.50
2018-05-29T08:23:26.102Z,60.50
2018-05-29T08:25:54.418Z,60.70
2018-05-29T08:28:22.629Z,62.30
2018-05-29T08:30:50.090Z,62.20
2018-05-29T08:33:17.536Z,59.10
2018-05-29T08:35:44.987Z,59.50
2018-05-29T08:38:12.437Z,61.60
2018-05-29T08:40:40.661Z,58.20
2018-05-29T08:43:08.108Z,58.20
2018-05-29T08:45:35.546Z,59.40
2018-05-29T08:48:02.991Z,57.10
2018-05-29T08:50:30.442Z,58.00
2018-05-29T08:52:58.649Z,57.00
2018-05-29T08:55:26.853Z,55.80
2018-05-29T08:57:54.297Z,55.80
2018-05-29T09:00:21.777Z,56.30
2018-05-29T09:02:49.218Z,55.50
2018-05-29T09:05:16.674Z,55.30
2018-05-29T09:07:44.114Z,56.00
2018-05-29T09:10:11.557Z,55.10
2018-05-29T09:12:39.023Z,55.70
2018-05-29T09:15:06.475Z,53.00
2018-05-29T09:17:33.920Z,53.60
2018-05-29T09:20:01.401Z,53.60
2018-05-29T09:22:29.576Z,53.50
2018-05-29T09:24:57.015Z,53.60
2018-05-29T09:27:24.711Z,54.30
2018-05-29T09:29:52.210Z,52.40
2018-05-29T09:32:19.610Z,52.40
2018-05-29T09:34:47.054Z,54.10
2018-05-29T09:37:14.502Z,52.60
2018-05-29T09:39:42.508Z,52.70
2018-05-29T09:42:09.975Z,52.30
2018-05-29T09:44:37.438Z,52.90
2018-05-29T09:47:04.890Z,52.80
2018-05-29T09:49:32.331Z,52.70
2018-05-29T09:52:00.678Z,52.40
2018-05-29T09:54:28.159Z,51.30
2018-05-29T09:56:56.334Z,50.40
2018-05-29T09:59:23.778Z,50.40
2018-05-29T10:01:51.222Z,51.50
2018-05-29T10:04:19.434Z,50.50
2018-05-29T10:06:46.887Z,50.50
2018-05-29T10:09:14.326Z,51.60
2018-05-29T10:11:41.769Z,50.80
2018-05-29T10:14:10.009Z,52.10
2018-05-29T10:16:37.451Z,52.10
2018-05-29T10:19:04.899Z,51.10
2018-05-29T10:21:32.349Z,51.10
2018-05-29T10:24:02.159Z,52.00
2018-05-29T10:26:29.598Z,52.00
2018-05-29T10:28:57.055Z,50.90
2018-05-29T10:31:24.521Z,52.60
2018-05-29T10:33:51.977Z,52.10
2018-05-29T10:36:19.426Z,51.50
2018-05-29T10:38:47.637Z,51.20
2018-05-29T10:41:16.470Z,52.00
2018-05-29T10:43:44.680Z,51.20
2018-05-29T10:46:12.118Z,51.20
2018-05-29T10:48:40.325Z,50.80
2018-05-29T10:51:07.774Z,50.80
2018-05-29T10:53:35.218Z,50.90
2018-05-29T10:56:02.668Z,52.40
2018-05-29T10:58:30.129Z,51.90
2018-05-29T11:00:57.566Z,51.80
2018-05-29T11:03:26.449Z,51.50
2018-05-29T11:05:53.889Z,51.50
2018-05-29T11:08:21.342Z,50.80
2018-05-29T11:10:48.773Z,52.70
2018-05-29T11:13:16.218Z,50.70
2018-05-29T11:15:43.661Z,50.20
2018-05-29T11:18:11.109Z,51.60
2018-05-29T11:20:39.689Z,51.20
2018-05-29T11:23:07.116Z,51.20
2018-05-29T11:25:34.554Z,51.00
2018-05-29T11:28:02.014Z,51.70
2018-05-29T11:30:29.450Z,51.20
2018-05-29T11:32:56.891Z,49.80
2018-05-29T11:35:24.331Z,51.50
2018-05-29T11:37:52.569Z,51.00
2018-05-29T11:40:20.015Z,51.00
2018-05-29T11:42:47.463Z,50.70
2018-05-29T11:45:15.670Z,50.60
2018-05-29T11:47:43.113Z,50.50
2018-05-29T11:50:10.577Z,51.90
2018-05-29T11:52:38.014Z,51.00
2018-05-29T11:55:05.466Z,51.70
2018-05-29T11:57:32.924Z,50.70
2018-05-29T12:00:00.399Z,51.30
2018-05-29T12:02:27.843Z,51.00
2018-05-29T12:04:55.285Z,52.10
2018-05-29T12:07:22.723Z,51.00
2018-05-29T12:09:50.940Z,50.00
2018-05-29T12:12:27.217Z,50.00
2018-05-29T12:14:54.688Z,51.60
2018-05-29T12:17:22.123Z,51.40
2018-05-29T12:19:49.569Z,52.40
2018-05-29T12:22:17.064Z,52.30
2018-05-29T12:24:44.473Z,53.00
2018-05-29T12:27:11.910Z,53.40
2018-05-29T12:29:39.595Z,53.50
2018-05-29T12:32:07.021Z,52.40
2018-05-29T12:34:35.646Z,51.80
2018-05-29T12:37:03.082Z,51.70
2018-05-29T12:39:30.530Z,49.40
2018-05-29T12:41:58.742Z,49.40
2018-05-29T12:44:26.190Z,49.40
2018-05-29T12:46:53.642Z,50.10
2018-05-29T12:49:21.081Z,51.90
2018-05-29T12:51:48.527Z,52.00
2018-05-29T12:54:16.750Z,52.20
2018-05-29T12:56:44.194Z,52.10
2018-05-29T12:59:11.681Z,53.20
2018-05-29T13:01:39.098Z,54.30
2018-05-29T13:04:06.548Z,54.70
2018-05-29T13:06:34.022Z,55.30
2018-05-29T13:09:01.512Z,55.20
2018-05-29T13:11:29.011Z,56.80
2018-05-29T13:13:57.217Z,56.70
2018-05-29T13:16:24.666Z,56.70
2018-05-29T13:18:52.115Z,57.50
2018-05-29T13:21:19.558Z,57.00
2018-05-29T13:23:47.765Z,59.30
2018-05-29T13:26:15.211Z,59.30
2018-05-29T13:28:43.754Z,58.70
2018-05-29T13:31:11.214Z,58.10
2018-05-29T13:33:38.674Z,60.80
2018-05-29T13:36:06.175Z,59.70
2018-05-29T13:38:33.624Z,59.20
2018-05-29T13:41:01.068Z,61.60
2018-05-29T13:43:29.278Z,60.50
2018-05-29T13:45:56.800Z,60.40
2018-05-29T13:48:25.014Z,58.60
2018-05-29T13:50:52.467Z,58.50
2018-05-29T13:53:19.906Z,58.60
2018-05-29T13:55:47.350Z,59.20
2018-05-29T13:58:15.558Z,58.80
2018-05-29T14:00:43.016Z,58.80
2018-05-29T14:03:10.445Z,58.70
2018-05-29T14:05:37.890Z,60.00
2018-05-29T14:08:06.099Z,59.40
2018-05-29T14:10:33.564Z,59.40
2018-05-29T14:13:01.054Z,59.00
2018-05-29T14:15:28.504Z,59.20
2018-05-29T14:17:55.974Z,59.50
2018-05-29T14:20:23.413Z,59.80
2018-05-29T14:22:50.854Z,60.20
2018-05-29T14:25:18.303Z,59.60
2018-05-29T14:27:45.745Z,61.10
2018-05-29T14:30:13.182Z,62.50
2018-05-29T14:32:41.390Z,62.50
2018-05-29T14:35:09.676Z,62.50
2018-05-29T14:37:37.114Z,62.10
2018-05-29T14:40:04.579Z,62.50
2018-05-29T14:42:32.036Z,61.70
2018-05-29T14:45:02.400Z,62.20
2018-05-29T14:47:29.873Z,62.70
2018-05-29T14:49:57.334Z,63.10
2018-05-29T14:52:24.802Z,63.00
2018-05-29T14:54:52.233Z,64.30
2018-05-29T14:57:19.666Z,63.90
2018-05-29T14:59:47.907Z,64.60
2018-05-29T15:02:16.102Z,63.70
2018-05-29T15:04:43.548Z,63.60
2018-05-29T15:22:24.513Z,63.20
2018-05-29T15:24:52.747Z,61.50
2018-05-29T15:27:20.150Z,61.50
2018-05-29T15:29:47.636Z,62.70
2018-05-29T15:32:15.067Z,63.50
2018-05-29T15:34:43.306Z,66.00
2018-05-29T15:37:10.753Z,65.90
2018-05-29T15:39:38.181Z,65.70
2018-05-29T15:42:05.622Z,66.50
2018-05-29T15:44:33.065Z,66.20
2018-05-29T15:47:01.279Z,65.30
2018-05-29T15:49:29.080Z,65.30
2018-05-29T15:51:56.513Z,66.20
2018-05-29T15:54:23.991Z,68.40
2018-05-29T15:56:51.455Z,69.00
2018-05-29T15:59:18.881Z,70.00
2018-05-29T16:01:46.331Z,70.10
2018-05-29T16:04:14.779Z,71.10
2018-05-29T16:06:43.325Z,74.00
2018-05-29T16:09:10.779Z,74.00
2018-05-29T16:11:38.243Z,73.90
2018-05-29T16:14:05.721Z,76.30
2018-05-29T16:16:33.160Z,75.60
2018-05-29T16:19:00.605Z,75.30
2018-05-29T16:21:28.051Z,76.70
2018-05-29T16:23:56.675Z,76.80
2018-05-29T16:26:24.128Z,76.80
2018-05-29T16:28:52.302Z,76.80
2018-05-29T16:31:19.746Z,76.20
2018-05-29T16:33:47.197Z,76.60
2018-05-29T16:36:15.605Z,77.20
2018-05-29T16:38:45.763Z,77.60
2018-05-29T16:41:13.261Z,77.60
2018-05-29T16:43:41.322Z,77.00
2018-05-29T16:46:09.542Z,79.30
2018-05-29T16:48:37.052Z,78.10
2018-05-29T16:51:04.499Z,79.10
2018-05-29T16:53:31.946Z,77.70
2018-05-29T16:56:00.202Z,76.70
2018-05-29T16:58:27.650Z,77.40
2018-05-29T17:00:55.868Z,76.20
2018-05-29T17:03:23.359Z,76.20
2018-05-29T17:05:50.810Z,75.70
2018-05-29T17:08:18.249Z,76.90
2018-05-29T17:10:45.702Z,76.00
2018-05-29T17:13:13.147Z,73.60
2018-05-29T17:15:42.120Z,73.50
2018-05-29T17:18:09.563Z,75.80
2018-05-29T17:20:37.771Z,75.40
2018-05-29T17:23:05.214Z,75.40
2018-05-29T17:25:33.461Z,75.20
2018-05-29T17:28:01.683Z,76.00
2018-05-29T17:30:29.125Z,76.00
2018-05-29T17:32:56.582Z,76.30
2018-05-29T17:35:25.226Z,76.80
2018-05-29T17:37:52.698Z,76.80
2018-05-29T17:40:21.914Z,76.40
2018-05-29T17:42:56.663Z,75.40
2018-05-29T17:45:24.237Z,75.30
2018-05-29T17:47:51.683Z,75.10
2018-05-29T17:50:19.121Z,74.40
2018-05-29T17:52:46.924Z,73.50
2018-05-29T17:55:14.345Z,71.80
2018-05-29T17:57:41.794Z,73.60
2018-05-29T18:00:10.011Z,75.10
2018-05-29T18:02:37.457Z,75.10
2018-05-29T18:05:04.911Z,77.00
2018-05-29T18:07:32.362Z,76.40
2018-05-29T18:09:59.806Z,76.10
2018-05-29T18:12:27.261Z,77.40
2018-05-29T18:14:55.222Z,76.70
2018-05-29T18:17:23.431Z,76.90
2018-05-29T18:19:51.654Z,76.90
2018-05-29T18:22:19.102Z,78.10
2018-05-29T18:24:46.576Z,78.40
2018-05-29T18:27:14.013Z,78.20
2018-05-29T18:29:42.190Z,77.90
2018-05-29T18:32:09.634Z,77.90
2018-05-29T18:34:37.069Z,78.20
2018-05-29T18:37:04.546Z,78.40
2018-05-29T18:39:31.978Z,78.70
2018-05-29T18:41:59.414Z,78.40
2018-05-29T18:44:26.863Z,77.00
2018-05-29T18:46:55.070Z,77.30
2018-05-29T18:49:22.739Z,77.30
2018-05-29T18:51:50.177Z,76.50
2018-05-29T18:56:51.662Z,76.40
2018-05-29T18:59:19.118Z,73.60
2018-05-29T19:01:46.550Z,74.20
2018-05-29T19:04:14.780Z,73.60
2018-05-29T19:06:42.230Z,73.70
2018-05-29T19:09:09.666Z,74.20
2018-05-29T19:11:37.115Z,73.70
2018-05-29T19:14:04.781Z,74.10
2018-05-29T19:16:32.252Z,74.30
2018-05-29T19:18:59.701Z,74.10
2018-05-29T19:21:27.137Z,74.50
2018-05-29T19:23:54.586Z,74.40
2018-05-29T19:26:22.814Z,75.50
2018-05-29T19:28:50.266Z,75.50
2018-05-29T19:31:17.719Z,76.00
2018-05-29T19:33:45.241Z,75.80
2018-05-29T19:36:12.682Z,76.20
2018-05-29T19:38:40.902Z,76.10
2018-05-29T19:41:09.666Z,76.10
2018-05-29T19:43:37.130Z,76.90
2018-05-29T19:46:04.779Z,76.30
2018-05-29T19:48:32.998Z,77.00
2018-05-29T19:51:01.436Z,77.00
2018-05-29T19:53:28.844Z,76.80
2018-05-29T19:55:56.292Z,76.70
2018-05-29T19:58:24.290Z,77.10
2018-05-29T20:00:51.742Z,77.50
2018-05-29T20:03:21.491Z,77.60
2018-05-29T20:05:48.934Z,77.60
2018-05-29T20:08:17.721Z,78.50
2018-05-29T20:10:45.375Z,78.40
2018-05-29T20:13:12.829Z,77.90
2018-05-29T20:15:40.282Z,77.60
2018-05-29T20:18:07.721Z,78.10
2018-05-29T20:20:35.974Z,78.30
2018-05-29T20:23:04.058Z,78.60
2018-05-29T20:25:31.493Z,78.30
2018-05-29T20:27:59.301Z,78.30
2018-05-29T20:30:26.729Z,78.40
2018-05-29T20:32:54.998Z,78.50
2018-05-29T20:35:22.442Z,78.80
2018-05-29T20:37:49.885Z,78.60
2018-05-29T20:40:18.137Z,78.90
2018-05-29T20:42:45.586Z,78.90
2018-05-29T20:45:14.623Z,79.10
2018-05-29T20:47:42.084Z,79.00
2018-05-29T20:50:10.342Z,79.00
2018-05-29T20:52:38.560Z,79.40
2018-05-29T20:55:06.003Z,79.30
2018-05-29T20:57:34.352Z,80.00
2018-05-29T21:00:02.599Z,80.50
2018-05-29T21:02:30.038Z,80.50
2018-05-29T21:04:57.785Z,80.50
2018-05-29T21:07:25.229Z,80.50
2018-05-29T21:09:53.430Z,80.00
2018-05-29T21:12:20.867Z,80.00
2018-05-29T21:14:48.336Z,79.80
2018-05-29T21:17:19.905Z,80.10
2018-05-29T21:19:51.958Z,80.00
2018-05-29T21:22:21.985Z,80.20
2018-05-29T21:24:51.547Z,80.20
2018-05-29T21:27:21.112Z,80.50
2018-05-29T21:29:51.515Z,80.50
2018-05-29T21:32:19.326Z,80.30
2018-05-29T21:34:50.342Z,80.80
2018-05-29T21:37:18.892Z,80.70
2018-05-29T21:42:22.040Z,80.60
2018-05-29T21:44:51.488Z,80.40
2018-05-29T21:47:20.192Z,80.60
2018-05-29T21:49:52.146Z,80.60
2018-05-29T21:52:24.966Z,80.90
2018-05-29T21:54:55.209Z,81.20
2018-05-29T21:57:24.760Z,81.00
2018-05-29T21:59:53.616Z,81.10
2018-05-29T22:02:21.261Z,80.80
2018-05-29T22:04:52.183Z,80.80
2018-05-29T22:07:23.193Z,80.60
2018-05-29T22:09:54.464Z,80.00
2018-05-29T22:12:23.364Z,79.80
2018-05-29T22:14:54.754Z,79.80
2018-05-29T22:17:22.198Z,79.70
2018-05-29T22:19:50.579Z,80.10
2018-05-29T22:22:23.280Z,79.90
2018-05-29T22:24:53.795Z,79.80
2018-05-29T22:27:25.123Z,80.00
2018-05-29T22:29:54.851Z,81.10
2018-05-29T22:32:25.028Z,80.30
2018-05-29T22:34:53.828Z,80.10
2018-05-29T22:37:25.398Z,80.40
2018-05-29T22:39:57.378Z,80.30
2018-05-29T22:42:29.512Z,81.70
2018-05-29T22:45:01.904Z,80.80
2018-05-29T22:47:33.345Z,81.20
2018-05-29T22:50:03.743Z,81.20
2018-05-29T22:52:36.334Z,81.20
2018-05-29T22:55:04.545Z,82.00
2018-05-29T22:57:32.709Z,81.90
2018-05-29T23:00:03.855Z,82.40
2018-05-29T23:02:34.831Z,82.40
2018-05-29T23:05:04.105Z,82.30
2018-05-29T23:07:31.559Z,82.90
2018-05-29T23:10:03.932Z,82.90
2018-05-29T23:12:33.715Z,82.90
2018-05-29T23:15:01.917Z,82.70
2018-05-29T23:17:29.354Z,82.70
2018-05-29T23:19:57.053Z,82.10
2018-05-29T23:22:25.118Z,82.40
2018-05-29T23:24:52.562Z,82.50
2018-05-29T23:27:20.590Z,82.40
2018-05-29T23:29:48.029Z,82.80
2018-05-29T23:32:16.470Z,82.70
2018-05-29T23:34:43.906Z,82.20
2018-05-29T23:37:12.349Z,82.40
2018-05-29T23:39:39.774Z,82.30
2018-05-29T23:42:08.390Z,81.80
2018-05-29T23:44:35.839Z,81.80
2018-05-29T23:47:03.274Z,80.80
2018-05-29T23:49:30.718Z,80.10
2018-05-29T23:51:58.161Z,79.80
2018-05-29T23:54:26.361Z,80.00
2018-05-29T23:56:55.213Z,80.00
2018-05-29T23:59:23.423Z,80.20
